PLJ weather

Placencia Airport
Placencia, Stann Creek District, Belize

Public forecast

Using degrees Celsius for public forecast. Weather courtesy of forecast.io.

METAR (pilot weather report)

Closest report is Puerto Barrios Airport, 50.1 nm (92.7 km) SSW. Retrieved 2019/04/22 08:00 UTC (6 minutes ago):

MGPB 220800Z 00000KT 9999 FEW017 21/20 Q1015 A2997

TAF (pilot weather forecast)

Closest forecast is Puerto Barrios Airport, 50.1 nm (92.7 km) SSW. Retrieved 2019/04/22 06:06 UTC (2 hours ago):

TAF TAF MGPB 220500Z 2206/2306 00000KT 9999 FEW016 TX30/2220Z TN20/2212Z BECMG 2216/2218 05010KT FEW018 TEMPO 2218/2300 SCT020 BECMG 2300/2302 00000KT FEW016